Gleed, Washington
Current Conditions -  °F | °C
As of 7:53 PM on Friday 28 Nov 2014 (Local Time) from KYKM Reporting Station
Scattered Clouds Scattered Clouds  
Wind Chill: 48°   Ceiling: Unl
Heat Index: 48°   Visibility: 10mi
Dew Point: 38°   Wind: 3mph
Humidity: 68%   Direction: 300°WNW
Pressure: 29.33"   Gusts: NA
Location:  46.6584°N, 120.612°W
Report Text: KYKM 290353Z 30003KT 10SM FEW050 SCT110 09/03 A2933 RMK AO2 SLP933 T00890033
Loading
Personal Weather Stations






























Interactive Weather Map New forecast layout! Learn more

10-Day Weather Forecast

Advertisements
Track Severe Weather on mobile